ADDS METAR Data INFO
IDs: Format: Raw Decoded Include TAF

Data at: 0501 UTC 25 May 2018

KRYW 250455Z AUTO 15005KT 10SM CLR 26/21 A3005 RMK AO2 T02600208
KRYW 250435Z AUTO 14006KT 10SM CLR 27/21 A3005 RMK AO2 T02650205
KRYW 250415Z AUTO 14006KT 10SM CLR 27/20 A3004 RMK AO2 T02650203
KRYW 250355Z AUTO 13005KT 10SM CLR 27/20 A3004 RMK AO2 T02680200
KRYW 250335Z AUTO 13004KT 10SM CLR 27/20 A3003 RMK AO2 T02680198
KRYW 250315Z AUTO 13004KT 10SM CLR 27/20 A3003 RMK AO2 T02680198
KRYW 250255Z AUTO 13004KT 10SM CLR 27/20 A3002 RMK AO2 T02700197
KRYW 250235Z AUTO 12004KT 10SM CLR 27/20 A3002 RMK AO2 T02730197
KRYW 250215Z AUTO 12004KT 10SM CLR 28/20 A3002 RMK AO2 T02750195
KRYW 250155Z AUTO 00000KT 10SM CLR 28/19 A3002 RMK AO2 T02770192
KRYW 250135Z AUTO 00000KT 10SM CLR 28/19 A3001 RMK AO2 T02800191
KRYW 250115Z AUTO 00000KT 10SM CLR 29/19 A3000 RMK AO2 T02870190
KRYW 250055Z AUTO 00000KT 10SM CLR 30/18 A3000 RMK AO2 T02990183
KRYW 250035Z AUTO 13003KT 10SM CLR 31/18 A2999 RMK AO2 T03050180
KRYW 250015Z AUTO 13005KT 10SM CLR 32/17 A3000 RMK AO2 T03160171
KRYW 242355Z AUTO 13004KT 10SM SCT065 32/17 A2999 RMK AO2 T03210168 10336 20301
KRYW 242335Z AUTO 14003KT 10SM SCT065 33/17 A3000 RMK AO2 T03250165
KRYW 242315Z AUTO 14006KT 10SM SCT060 33/17 A3000 RMK AO2 T03320167
KRYW 242255Z AUTO 00000KT 10SM SCT060 33/16 A3000 RMK AO2 T03310162
KRYW 242235Z AUTO 11003KT 10SM SCT060 33/16 A3001 RMK AO2 T03330163
KRYW 242215Z AUTO 00000KT 10SM SCT060 33/16 A3001 RMK AO2 T03260162
KRYW 242155Z AUTO 12005KT 10SM SCT060 33/16 A3002 RMK AO2 T03320161
KRYW 242135Z AUTO 12005KT 10SM SCT060 33/16 A3002 RMK AO2 T03310157
KRYW 242115Z AUTO 09004KT 10SM SCT055 33/16 A3003 RMK AO2 T03340157
KRYW 242055Z AUTO 09006KT 10SM SCT055 33/17 A3003 RMK AO2 T03340165
KRYW 242035Z AUTO 00000KT 10SM SCT055 32/16 A3004 RMK AO2 T03240161
KRYW 242015Z AUTO 07004KT 10SM BKN055 33/17 A3005 RMK AO2 T03310169
KRYW 241955Z AUTO 17005KT 10SM SCT049 32/17 A3006 RMK AO2 T03220172
KRYW 241935Z AUTO 19004KT 10SM SCT049 SCT060 31/18 A3007 RMK AO2 T03130179
KRYW 241915Z AUTO 19005KT 10SM SCT049 SCT060 32/18 A3007 RMK AO2 T03170177
KRYW 241855Z AUTO 13007KT 10SM SCT042 31/18 A3008 RMK AO2 T03080182
KRYW 241835Z AUTO 11003KT 10SM BKN042 SCT080 31/19 A3009 RMK AO2 T03130186
KRYW 241815Z AUTO 11005KT 10SM BKN040 BKN050 BKN070 31/19 A3010 RMK AO2 T03070188
KRYW 241755Z AUTO 00000KT 10SM SCT040 SCT050 BKN065 31/19 A3010 RMK AO2 T03090187 10310 20222
KRYW 241735Z AUTO 11004KT 10SM CLR 30/19 A3010 RMK AO2 T03000189
KRYW 241715Z AUTO 18004KT 10SM CLR 30/19 A3011 RMK AO2 T02990188
KRYW 241655Z AUTO 17005KT 10SM SCT031 SCT048 30/19 A3012 RMK AO2 T02970191
KRYW 241635Z AUTO 18006KT 10SM BKN031 BKN040 BKN048 29/20 A3012 RMK AO2 T02870197
KRYW 241615Z AUTO 11006KT 10SM BKN029 BKN038 29/20 A3012 RMK AO2 T02870197
KRYW 241555Z AUTO 00000KT 10SM SCT017 SCT026 BKN033 29/19 A3012 RMK AO2 T02860191
KRYW 241535Z AUTO 17004KT 10SM SCT017 BKN031 27/21 A3011 RMK AO2 T02730211
KRYW 241515Z AUTO 18003KT 10SM SCT015 BKN031 27/22 A3011 RMK AO2 T02680216
KRYW 241455Z AUTO 00000KT 10SM SCT013 BKN023 OVC030 25/22 A3011 RMK AO2 T02530217
KRYW 241435Z AUTO 19005KT 10SM SCT009 SCT014 OVC021 25/22 A3011 RMK AO2 T02460217
KRYW 241355Z AUTO 18004KT 10SM BKN007 OVC015 23/22 A3011 RMK AO2 T02340219
KRYW 241335Z AUTO 18006KT 10SM OVC007 23/22 A3010 RMK AO2 T02300218
KRYW 241315Z AUTO 14006KT 10SM OVC005 23/22 A3009 RMK AO2 T02300220
KRYW 241255Z AUTO 15004KT 7SM OVC005 23/22 A3009 RMK AO2 T02270221
KRYW 241235Z AUTO 16003KT 7SM OVC003 23/22 A3008 RMK AO2 T02250220
KRYW 241215Z AUTO 15006KT 7SM OVC003 22/22 A3007 RMK AO2 T02230220
KRYW 241155Z AUTO 15005KT 10SM OVC003 22/22 A3007 RMK AO2 T02220220 10235 20221
KRYW 241135Z AUTO 15004KT 10SM BKN003 OVC007 22/22 A3007 RMK AO2 T02220218
KRYW 241115Z AUTO 15004KT 10SM SCT003 BKN012 22/22 A3007 RMK AO2 T02220217
KRYW 241055Z AUTO 17004KT 10SM BKN005 OVC010 23/22 A3007 RMK AO2 T02250220
KRYW 241035Z AUTO 00000KT 10SM BKN005 OVC010 23/22 A3007 RMK AO2 T02250220
KRYW 241015Z AUTO 18005KT 10SM OVC005 23/22 A3007 RMK AO2 T02250219
KRYW 240955Z AUTO 19004KT 10SM BKN005 OVC010 23/22 A3007 RMK AO2 LTG DSNT E T02250218
KRYW 240935Z AUTO 18003KT 10SM BKN007 OVC010 23/22 A3007 RMK AO2 T02250217
KRYW 240915Z AUTO 19004KT 10SM BKN005 22/22 A3008 RMK AO2 T02220216
KRYW 240855Z AUTO 14004KT 10SM SCT007 22/21 A3007 RMK AO2 T02220214
KRYW 240835Z AUTO 16003KT 10SM OVC007 23/21 A3008 RMK AO2 T02250212
KRYW 240815Z AUTO 13003KT 10SM OVC007 23/21 A3008 RMK AO2 T02250211
KRYW 240755Z AUTO 17004KT 10SM OVC007 23/21 A3008 RMK AO2 T02260211
KRYW 240735Z AUTO 15004KT 10SM BKN009 23/21 A3008 RMK AO2 T02250210
KRYW 240715Z AUTO 16004KT 10SM BKN009 23/21 A3008 RMK AO2 T02260208
KRYW 240655Z AUTO 16004KT 10SM SCT011 23/21 A3009 RMK AO2 T02280208
KRYW 240635Z AUTO 16005KT 10SM SCT011 SCT016 23/21 A3010 RMK AO2 T02300207
KRYW 240615Z AUTO 14004KT 10SM SCT011 SCT023 23/21 A3010 RMK AO2 T02320206
KRYW 240555Z AUTO 15004KT 10SM CLR 24/21 A3010 RMK AO2 T02350205 10290 20235 403280218
KRYW 240535Z AUTO 14005KT 10SM SCT027 24/21 A3009 RMK AO2 T02350205
KRYW 240515Z AUTO 12005KT 10SM SCT027 24/21 A3009 RMK AO2 T02370205
KRYW 240455Z AUTO 11005KT 10SM BKN027 24/21 A3008 RMK AO2 T02410207
KRYW 240435Z AUTO 11004KT 10SM BKN027 24/21 A3008 RMK AO2 T02420206
KRYW 240415Z AUTO 12004KT 10SM BKN023 24/21 A3007 RMK AO2 T02420205
KRYW 240355Z AUTO 10003KT 10SM SCT023 24/20 A3007 RMK AO2 T02350200
KRYW 240335Z AUTO 10003KT 10SM CLR 24/20 A3006 RMK AO2 T02400201
KRYW 240315Z AUTO 00000KT 10SM CLR 24/20 A3005 RMK AO2 T02410200
KRYW 240255Z AUTO 13003KT 10SM CLR 25/20 A3004 RMK AO2 T02450198
KRYW 240235Z AUTO 12003KT 10SM CLR 25/20 A3003 RMK AO2 T02480196
KRYW 240215Z AUTO 11004KT 10SM CLR 25/19 A3002 RMK AO2 T02520194
KRYW 240155Z AUTO 11006KT 10SM CLR 25/19 A3001 RMK AO2 T02530188
KRYW 240135Z AUTO 11006KT 10SM CLR 26/19 A3001 RMK AO2 T02580185
KRYW 240115Z AUTO 10007KT 10SM CLR 26/19 A3000 RMK AO2 T02620189
KRYW 240055Z AUTO 11007KT 10SM CLR 27/19 A2999 RMK AO2 T02710187
KRYW 240035Z AUTO 12009G14KT 080V140 10SM CLR 28/18 A2999 RMK AO2 T02800183
KRYW 240015Z AUTO 11009KT 10SM CLR 29/19 A2999 RMK AO2 T02860185
KRYW 232355Z AUTO 11009KT 10SM CLR 29/19 A2999 RMK AO2 T02900185 10328 20290
KRYW 232335Z AUTO 11008G16KT 10SM CLR 30/19 A3000 RMK AO2 T02950187
KRYW 232315Z AUTO 11010G14KT 10SM CLR 30/18 A3000 RMK AO2 T03000180
KRYW 232255Z AUTO 12010G15KT 10SM SCT080 31/19 A3000 RMK AO2 T03050188
KRYW 232235Z AUTO 11012G16KT 10SM SCT080 31/20 A3000 RMK AO2 T03060196
KRYW 232215Z AUTO 09009G17KT 10SM SCT100 32/19 A3000 RMK AO2 T03150191
KRYW 232155Z AUTO 12009G16KT 10SM SCT048 SCT080 32/20 A3001 RMK AO2 T03190195
KRYW 232135Z AUTO 10006KT 070V130 10SM SCT048 BKN080 32/19 A3001 RMK AO2 T03150186
KRYW 232115Z AUTO 09008G14KT 10SM SCT050 SCT065 SCT090 31/18 A3001 RMK AO2 T03130181
KRYW 232055Z AUTO 14007G15KT 10SM SCT055 SCT065 BKN090 32/18 A3002 RMK AO2 T03220177
KRYW 232035Z AUTO 14006KT 10SM SCT055 BKN090 32/16 A3002 RMK AO2 LTG DSNT E T03210163
KRYW 232015Z AUTO 15004KT 10SM SCT055 32/17 A3003 RMK AO2 T03220166
KRYW 231955Z AUTO 16007KT 080V170 10SM CLR 32/16 A3003 RMK AO2 T03230157
KRYW 231935Z AUTO 11004KT 10SM CLR 32/17 A3003 RMK AO2 T03230166
KRYW 231915Z AUTO 11006KT 10SM CLR 32/16 A3004 RMK AO2 T03160164
KRYW 231855Z AUTO 12003KT 10SM SCT044 SCT060 32/18 A3005 RMK AO2 LTG DSNT SE T03160175
KRYW 231835Z AUTO 12006KT 10SM SCT041 SCT048 BKN060 30/18 A3006 RMK AO2 T03030180
KRYW 231815Z AUTO 14007KT 10SM SCT041 SCT050 30/18 A3006 RMK AO2 T03030179
KRYW 231755Z AUTO 19003KT 10SM SCT039 SCT044 BKN050 30/18 A3006 RMK AO2 T02990181 10300 20220
KRYW 231735Z AUTO 16004KT 10SM SCT039 SCT048 SCT055 29/18 A3007 RMK AO2 T02890180
KRYW 231715Z AUTO 19003KT 10SM SCT036 SCT049 30/19 A3007 RMK AO2 T02980189